createdAt,value
2017-07-09T00:00:45.208Z,30.7
2017-07-09T00:01:48.003Z,30.6
2017-07-09T00:02:45.317Z,30.6
2017-07-09T00:03:50.663Z,30.6
2017-07-09T00:04:50.353Z,30.6
2017-07-09T00:05:45.425Z,30.6
2017-07-09T00:06:50.674Z,30.7
2017-07-09T00:07:48.553Z,30.7
2017-07-09T00:08:50.797Z,30.7
2017-07-09T00:09:46.026Z,30.6
2017-07-09T00:10:46.010Z,30.6
2017-07-09T00:11:45.787Z,30.6
2017-07-09T00:12:46.012Z,30.6
2017-07-09T00:13:45.997Z,30.6
2017-07-09T00:14:46.095Z,30.7
2017-07-09T00:15:51.489Z,30.7
2017-07-09T00:16:46.086Z,30.7
2017-07-09T00:17:46.201Z,30.7
2017-07-09T00:18:46.138Z,30.7
2017-07-09T00:19:49.077Z,30.7
2017-07-09T00:20:49.276Z,30.7
2017-07-09T00:21:51.527Z,30.7
2017-07-09T00:22:46.454Z,30.7
2017-07-09T00:23:46.507Z,30.7
2017-07-09T00:24:46.411Z,30.7
2017-07-09T00:25:49.438Z,30.6
2017-07-09T00:26:46.543Z,30.7
2017-07-09T00:27:51.959Z,30.6
2017-07-09T00:28:46.634Z,30.6
2017-07-09T00:29:46.743Z,30.6
2017-07-09T00:30:46.785Z,30.6
2017-07-09T00:31:49.681Z,30.6
2017-07-09T00:32:51.877Z,30.6
2017-07-09T00:33:50.153Z,30.6
2017-07-09T00:34:47.129Z,30.6
2017-07-09T00:35:52.173Z,30.5
2017-07-09T00:36:47.197Z,30.6
2017-07-09T00:37:47.283Z,30.5
2017-07-09T00:38:52.138Z,30.5
2017-07-09T00:39:47.441Z,30.5
2017-07-09T00:40:47.358Z,30.6
2017-07-09T00:41:47.223Z,30.6
2017-07-09T00:42:52.401Z,30.6
2017-07-09T00:43:47.528Z,30.5
2017-07-09T00:44:47.569Z,30.5
2017-07-09T00:45:47.881Z,30.6
2017-07-09T00:46:52.692Z,30.6
2017-07-09T00:47:50.567Z,30.6
2017-07-09T00:48:47.547Z,30.5
2017-07-09T00:49:52.775Z,30.5
2017-07-09T00:50:47.910Z,30.5
2017-07-09T00:51:51.144Z,30.5
2017-07-09T00:52:47.888Z,30.5
2017-07-09T00:53:47.996Z,30.4
2017-07-09T00:54:50.933Z,30.5
2017-07-09T00:55:50.977Z,30.5
2017-07-09T00:56:48.139Z,30.5
2017-07-09T00:57:53.442Z,30.5
2017-07-09T00:58:51.193Z,30.4
2017-07-09T00:59:48.186Z,30.5
2017-07-09T01:00:48.216Z,30.5
2017-07-09T01:01:48.303Z,30.5
2017-07-09T01:02:48.402Z,30.4
2017-07-09T01:03:48.827Z,30.4
2017-07-09T01:04:53.380Z,30.4
2017-07-09T01:05:48.541Z,30.4
2017-07-09T01:06:51.431Z,30.4
2017-07-09T01:07:51.516Z,30.3
2017-07-09T01:08:48.691Z,30.4
2017-07-09T01:09:48.947Z,30.4
2017-07-09T01:10:51.654Z,30.4
2017-07-09T01:11:51.515Z,30.4
2017-07-09T01:12:48.789Z,30.4
2017-07-09T01:13:51.571Z,30.4
2017-07-09T01:14:49.271Z,30.4
2017-07-09T01:15:54.238Z,30.4
2017-07-09T01:16:49.214Z,30.4
2017-07-09T01:17:49.171Z,30.4
2017-07-09T01:18:49.246Z,30.4
2017-07-09T01:19:54.292Z,30.3
2017-07-09T01:20:54.372Z,30.3
2017-07-09T01:21:52.607Z,30.3
2017-07-09T01:22:49.530Z,30.3
2017-07-09T01:23:54.711Z,30.3
2017-07-09T01:24:52.473Z,30.2
2017-07-09T01:25:49.741Z,30.3
2017-07-09T01:26:49.724Z,30.2
2017-07-09T01:27:54.914Z,30.3
2017-07-09T01:28:49.554Z,30.3
2017-07-09T01:29:49.760Z,30.3
2017-07-09T01:30:52.663Z,30.3
2017-07-09T01:31:52.720Z,30.2
2017-07-09T01:32:50.127Z,30.2
2017-07-09T01:33:50.161Z,30.2
2017-07-09T01:34:49.876Z,30.2
2017-07-09T01:35:55.028Z,30.2
2017-07-09T01:36:55.033Z,30.1
2017-07-09T01:37:50.214Z,30.2
2017-07-09T01:38:53.002Z,30.2
2017-07-09T01:39:50.750Z,30.2
2017-07-09T01:40:53.061Z,30.2
2017-07-09T01:41:50.477Z,30.2
2017-07-09T01:42:50.336Z,30.1
2017-07-09T01:43:55.449Z,30.2
2017-07-09T01:44:53.303Z,30.1
2017-07-09T01:45:55.721Z,30.1
2017-07-09T01:46:53.373Z,30.1
2017-07-09T01:47:55.675Z,30.1
2017-07-09T01:48:50.675Z,30.1
2017-07-09T01:49:50.642Z,30.1
2017-07-09T01:50:53.727Z,30
2017-07-09T01:51:51.211Z,30
2017-07-09T01:52:55.868Z,30
2017-07-09T01:53:53.973Z,30
2017-07-09T01:54:56.173Z,30
2017-07-09T01:55:51.205Z,30
2017-07-09T01:56:51.186Z,29.9
2017-07-09T01:57:54.351Z,29.9
2017-07-09T01:58:51.266Z,29.9
2017-07-09T01:59:56.402Z,29.9
2017-07-09T02:00:51.551Z,29.9
2017-07-09T02:01:51.489Z,29.9
2017-07-09T02:02:54.583Z,29.9
2017-07-09T02:03:54.805Z,29.9
2017-07-09T02:04:51.730Z,29.9
2017-07-09T02:05:51.646Z,29.9
2017-07-09T02:06:51.762Z,29.9
2017-07-09T02:07:54.701Z,29.9
2017-07-09T02:08:51.856Z,29.9
2017-07-09T02:09:52.290Z,29.9
2017-07-09T02:10:57.008Z,29.9
2017-07-09T02:11:52.129Z,29.9
2017-07-09T02:12:52.129Z,29.9
2017-07-09T02:13:51.961Z,30
2017-07-09T02:14:52.183Z,29.9
2017-07-09T02:15:55.331Z,30
2017-07-09T02:16:52.179Z,30
2017-07-09T02:17:55.113Z,30
2017-07-09T02:18:52.433Z,30
2017-07-09T02:19:52.343Z,30
2017-07-09T02:20:57.353Z,29.9
2017-07-09T02:21:57.804Z,29.9
2017-07-09T02:22:52.604Z,29.9
2017-07-09T02:23:52.616Z,29.9
2017-07-09T02:24:52.675Z,29.9
2017-07-09T02:25:52.707Z,29.9
2017-07-09T02:26:52.900Z,29.9
2017-07-09T02:27:53.080Z,29.9
2017-07-09T02:28:52.980Z,30
2017-07-09T02:29:53.018Z,29.9
2017-07-09T02:30:58.039Z,29.9
2017-07-09T02:31:58.054Z,29.9
2017-07-09T02:32:52.980Z,29.9
2017-07-09T02:33:53.362Z,29.9
2017-07-09T02:34:58.156Z,29.9
2017-07-09T02:35:56.041Z,29.9
2017-07-09T02:36:53.151Z,29.9
2017-07-09T02:37:53.272Z,29.9
2017-07-09T02:38:56.231Z,29.9
2017-07-09T02:39:56.551Z,29.9
2017-07-09T02:40:53.341Z,29.9
2017-07-09T02:41:56.505Z,29.8
2017-07-09T02:42:53.590Z,29.8
2017-07-09T02:43:56.634Z,29.8
2017-07-09T02:44:58.474Z,29.8
2017-07-09T02:45:53.987Z,29.8
2017-07-09T02:46:58.685Z,29.9
2017-07-09T02:47:58.695Z,29.9
2017-07-09T02:48:58.815Z,29.9
2017-07-09T02:49:56.574Z,29.8
2017-07-09T02:50:56.701Z,29.8
2017-07-09T02:51:57.121Z,29.8
2017-07-09T02:52:53.953Z,29.8
2017-07-09T02:53:56.899Z,29.8
2017-07-09T02:54:54.005Z,29.8
2017-07-09T02:55:54.321Z,29.8
2017-07-09T02:56:54.294Z,29.8
2017-07-09T02:57:57.324Z,29.8
2017-07-09T02:58:57.245Z,29.7
2017-07-09T02:59:57.301Z,29.7
2017-07-09T03:00:57.331Z,29.7
2017-07-09T03:01:54.549Z,29.7
2017-07-09T03:02:54.529Z,29.7
2017-07-09T03:03:57.767Z,29.7
2017-07-09T03:04:54.627Z,29.6
2017-07-09T03:05:57.515Z,29.7
2017-07-09T03:06:54.552Z,29.7
2017-07-09T03:07:57.582Z,29.7
2017-07-09T03:08:59.727Z,29.7
2017-07-09T03:09:54.889Z,29.8
2017-07-09T03:10:54.751Z,29.8
2017-07-09T03:11:54.854Z,29.8
2017-07-09T03:12:54.965Z,29.9
2017-07-09T03:13:59.963Z,29.8
2017-07-09T03:14:55.069Z,29.9
2017-07-09T03:15:58.110Z,29.8
2017-07-09T03:16:59.993Z,29.7
2017-07-09T03:17:57.980Z,29.7
2017-07-09T03:18:55.152Z,29.7
2017-07-09T03:19:55.308Z,29.6
2017-07-09T03:20:58.231Z,29.6
2017-07-09T03:22:00.531Z,29.7
2017-07-09T03:22:55.251Z,29.7
2017-07-09T03:23:58.238Z,29.7
2017-07-09T03:25:00.345Z,29.6
2017-07-09T03:25:55.411Z,29.6
2017-07-09T03:26:55.570Z,29.6
2017-07-09T03:27:55.750Z,29.6
2017-07-09T03:28:55.576Z,29.5
2017-07-09T03:30:00.809Z,29.5
2017-07-09T03:30:55.862Z,29.5
2017-07-09T03:32:00.893Z,29.5
2017-07-09T03:33:00.893Z,29.5
2017-07-09T03:33:59.189Z,29.5
2017-07-09T03:34:55.822Z,29.5
2017-07-09T03:35:55.873Z,29.5
2017-07-09T03:37:01.067Z,29.5
2017-07-09T03:37:56.200Z,29.4
2017-07-09T03:38:56.164Z,29.4
2017-07-09T03:39:59.360Z,29.4
2017-07-09T03:40:56.232Z,29.4
2017-07-09T03:42:01.293Z,29.5
2017-07-09T03:43:01.839Z,29.5
2017-07-09T03:44:02.564Z,29.5
2017-07-09T03:44:56.401Z,29.5
2017-07-09T03:46:01.120Z,29.5
2017-07-09T03:47:01.557Z,29.6
2017-07-09T03:47:57.202Z,29.6
2017-07-09T03:49:01.765Z,29.6
2017-07-09T03:49:59.772Z,29.6
2017-07-09T03:50:56.953Z,29.6
2017-07-09T03:51:57.693Z,29.5
2017-07-09T03:52:56.892Z,29.6
2017-07-09T03:54:02.971Z,29.6
2017-07-09T03:54:57.189Z,29.6
2017-07-09T03:55:57.216Z,29.6
2017-07-09T03:56:57.107Z,29.7
2017-07-09T03:57:57.430Z,29.8
2017-07-09T03:58:57.390Z,29.8
2017-07-09T03:59:57.311Z,29.8
2017-07-09T04:00:57.506Z,29.8
2017-07-09T04:02:02.583Z,29.8
2017-07-09T04:03:00.353Z,29.8
2017-07-09T04:03:57.939Z,29.7
2017-07-09T04:04:57.533Z,29.6
2017-07-09T04:06:02.649Z,29.6
2017-07-09T04:07:00.605Z,29.5
2017-07-09T04:08:00.788Z,29.5
2017-07-09T04:08:57.857Z,29.5
2017-07-09T04:09:58.253Z,29.5
2017-07-09T04:11:02.901Z,29.6
2017-07-09T04:12:02.997Z,29.6
2017-07-09T04:12:58.056Z,29.6
2017-07-09T04:14:03.010Z,29.6
2017-07-09T04:15:00.911Z,29.6
2017-07-09T04:15:58.382Z,29.6
2017-07-09T04:16:58.156Z,29.6
2017-07-09T04:17:58.118Z,29.7
2017-07-09T04:18:58.172Z,29.8
2017-07-09T04:19:58.311Z,29.8
2017-07-09T04:21:03.185Z,29.8
2017-07-09T04:21:58.516Z,29.8
2017-07-09T04:23:01.202Z,29.7
2017-07-09T04:23:58.628Z,29.7
2017-07-09T04:24:58.421Z,29.6
2017-07-09T04:26:01.429Z,29.6
2017-07-09T04:27:03.493Z,29.6
2017-07-09T04:27:58.848Z,29.5
2017-07-09T04:29:01.583Z,29.5
2017-07-09T04:29:58.771Z,29.5
2017-07-09T04:30:58.623Z,29.6
2017-07-09T04:31:59.361Z,29.6
2017-07-09T04:32:58.718Z,29.5
2017-07-09T04:33:59.191Z,29.6
2017-07-09T04:34:58.740Z,29.7
2017-07-09T04:36:01.726Z,29.8
2017-07-09T04:37:00.141Z,29.8
2017-07-09T04:37:59.891Z,29.8
2017-07-09T04:38:59.621Z,29.8
2017-07-09T04:40:02.411Z,29.8
2017-07-09T04:40:59.427Z,29.8
2017-07-09T04:42:02.399Z,29.7
2017-07-09T04:43:00.147Z,29.7
2017-07-09T04:44:02.620Z,29.7
2017-07-09T04:44:59.248Z,29.8
2017-07-09T04:45:59.637Z,29.8
2017-07-09T04:47:04.466Z,29.8
2017-07-09T04:47:59.583Z,29.9
2017-07-09T04:49:04.711Z,29.9
2017-07-09T04:49:59.423Z,29.9
2017-07-09T04:51:02.729Z,30
2017-07-09T04:52:05.125Z,30.1
2017-07-09T04:53:00.250Z,30.1
2017-07-09T04:54:00.106Z,30.1
2017-07-09T04:55:00.586Z,30.2
2017-07-09T04:56:05.608Z,30.2
2017-07-09T04:57:05.662Z,30.2
2017-07-09T04:58:04.021Z,30.2
2017-07-09T04:59:00.782Z,30.2
2017-07-09T05:00:05.636Z,30.2
2017-07-09T05:01:05.381Z,30.1
2017-07-09T05:02:00.263Z,30.1
2017-07-09T05:03:00.803Z,30
2017-07-09T05:04:01.292Z,30
2017-07-09T05:05:00.471Z,29.9
2017-07-09T05:06:03.014Z,29.8
2017-07-09T05:07:00.411Z,29.8
2017-07-09T05:08:00.437Z,29.8
2017-07-09T05:09:03.329Z,29.8
2017-07-09T05:10:03.558Z,29.9
2017-07-09T05:11:05.510Z,29.9
2017-07-09T05:12:00.646Z,30.1
2017-07-09T05:13:00.514Z,30.1
2017-07-09T05:14:03.427Z,30.1
2017-07-09T05:15:03.663Z,30.1
2017-07-09T05:16:01.114Z,30
2017-07-09T05:17:00.875Z,30
2017-07-09T05:18:06.525Z,29.9
2017-07-09T05:19:00.982Z,30
2017-07-09T05:20:01.045Z,30
2017-07-09T05:21:05.932Z,30
2017-07-09T05:22:04.148Z,30
2017-07-09T05:23:06.078Z,30.1
2017-07-09T05:24:06.204Z,30.1
2017-07-09T05:25:06.221Z,30.1
2017-07-09T05:26:06.308Z,30.2
2017-07-09T05:27:01.329Z,30.3
2017-07-09T05:28:04.805Z,30.2
2017-07-09T05:29:01.476Z,30.2
2017-07-09T05:30:04.432Z,30.2
2017-07-09T05:31:01.725Z,30.2
2017-07-09T05:32:06.610Z,30.2
2017-07-09T05:33:04.648Z,30.1
2017-07-09T05:34:05.032Z,30.2
2017-07-09T05:35:01.751Z,30.1
2017-07-09T05:36:06.831Z,30.1
2017-07-09T05:37:01.876Z,30.1
2017-07-09T05:38:01.913Z,30.1
2017-07-09T05:39:07.060Z,30.1
2017-07-09T05:40:02.434Z,30.1
2017-07-09T05:49:33.457Z,30.4
2017-07-09T05:50:30.206Z,30.3
2017-07-09T05:51:35.247Z,30.3
2017-07-09T05:52:30.363Z,30.3
2017-07-09T05:53:35.347Z,30.3
2017-07-09T05:54:35.397Z,30.3
2017-07-09T05:55:30.833Z,30.3
2017-07-09T05:56:30.685Z,30.3
2017-07-09T05:57:35.667Z,30.4
2017-07-09T05:58:33.644Z,30.4
2017-07-09T05:59:30.828Z,30.4
2017-07-09T06:00:35.739Z,30.4
2017-07-09T06:01:31.205Z,30.6
2017-07-09T06:02:35.794Z,30.6
2017-07-09T06:03:31.000Z,30.7
2017-07-09T06:04:31.032Z,30.7
2017-07-09T06:05:31.070Z,30.8
2017-07-09T06:06:31.115Z,30.8
2017-07-09T06:07:36.233Z,30.8
2017-07-09T06:08:31.054Z,30.8
2017-07-09T06:09:31.318Z,30.7
2017-07-09T06:10:31.360Z,30.6
2017-07-09T06:11:31.302Z,30.5
2017-07-09T06:12:34.249Z,30.5
2017-07-09T06:13:31.750Z,30.5
2017-07-09T06:14:31.596Z,30.5
2017-07-09T06:15:31.559Z,30.6
2017-07-09T06:16:31.624Z,30.6
2017-07-09T06:17:36.682Z,30.6
2017-07-09T06:18:31.606Z,30.6
2017-07-09T06:19:34.816Z,30.7
2017-07-09T06:20:34.606Z,30.7
2017-07-09T06:21:34.775Z,30.7
2017-07-09T06:22:36.772Z,30.8
2017-07-09T06:23:36.921Z,30.8
2017-07-09T06:24:36.836Z,30.9
2017-07-09T06:25:32.194Z,30.9
2017-07-09T06:26:36.935Z,30.8
2017-07-09T06:27:34.867Z,30.8
2017-07-09T06:28:32.246Z,30.8
2017-07-09T06:29:37.279Z,30.9
2017-07-09T06:30:32.195Z,30.9
2017-07-09T06:31:35.491Z,31
2017-07-09T06:32:37.505Z,31.1
2017-07-09T06:33:35.401Z,31.1
2017-07-09T06:34:32.530Z,31.3
2017-07-09T06:35:37.445Z,31.3
2017-07-09T06:36:32.550Z,31.3
2017-07-09T06:37:38.043Z,31.2
2017-07-09T06:38:32.654Z,31.2
2017-07-09T06:39:32.667Z,31.2
2017-07-09T06:40:32.759Z,31.1
2017-07-09T06:41:32.808Z,31
2017-07-09T06:42:32.914Z,30.9
2017-07-09T06:43:36.244Z,30.9
2017-07-09T06:44:38.045Z,30.9
2017-07-09T06:45:32.917Z,30.9
2017-07-09T06:46:38.047Z,30.9
2017-07-09T06:47:33.324Z,30.8
2017-07-09T06:48:38.166Z,30.8
2017-07-09T06:49:33.484Z,31
2017-07-09T06:50:38.324Z,31.1
2017-07-09T06:51:38.317Z,31.1
2017-07-09T06:52:38.486Z,31.2
2017-07-09T06:53:38.506Z,31.3
2017-07-09T06:54:38.623Z,31.4
2017-07-09T06:55:33.962Z,31.4
2017-07-09T06:56:36.463Z,31.4
2017-07-09T06:57:33.645Z,31.4
2017-07-09T06:58:38.810Z,31.4
2017-07-09T06:59:33.770Z,31.2
2017-07-09T07:00:33.832Z,31.2
2017-07-09T07:01:34.157Z,31.1
2017-07-09T07:02:39.097Z,31
2017-07-09T07:03:34.011Z,30.9
2017-07-09T07:04:34.053Z,30.9
2017-07-09T07:05:34.283Z,30.9
2017-07-09T07:06:39.221Z,30.8
2017-07-09T07:07:37.603Z,30.7
2017-07-09T07:08:37.867Z,30.8
2017-07-09T07:09:39.337Z,30.8
2017-07-09T07:10:37.374Z,31
2017-07-09T07:11:37.384Z,31.1
2017-07-09T07:12:37.357Z,31.1
2017-07-09T07:13:37.776Z,31.2
2017-07-09T07:14:34.589Z,31.2
2017-07-09T07:15:34.688Z,31.3
2017-07-09T07:16:40.392Z,31.3
2017-07-09T07:17:34.611Z,31.4
2017-07-09T07:18:34.797Z,31.5
2017-07-09T07:19:35.008Z,31.5
2017-07-09T07:20:34.897Z,31.6
2017-07-09T07:21:37.719Z,31.6
2017-07-09T07:22:39.917Z,31.6
2017-07-09T07:23:37.889Z,31.6
2017-07-09T07:24:34.871Z,31.6
2017-07-09T07:25:35.254Z,31.7
2017-07-09T07:26:38.626Z,31.8
2017-07-09T07:27:35.146Z,31.9
2017-07-09T07:28:40.288Z,31.9
2017-07-09T07:29:35.244Z,32
2017-07-09T07:30:38.223Z,32
2017-07-09T07:31:35.535Z,32
2017-07-09T07:32:35.319Z,31.9
2017-07-09T07:33:35.393Z,31.8
2017-07-09T07:34:40.453Z,31.7
2017-07-09T07:35:35.515Z,31.6
2017-07-09T07:36:35.645Z,31.6
2017-07-09T07:37:35.958Z,31.6
2017-07-09T07:38:40.768Z,31.6
2017-07-09T07:39:38.862Z,31.6
2017-07-09T07:40:38.807Z,31.7
2017-07-09T07:41:39.009Z,31.7
2017-07-09T07:42:36.169Z,31.8
2017-07-09T07:43:36.511Z,31.7
2017-07-09T07:44:41.111Z,31.7
2017-07-09T07:45:36.237Z,31.7
2017-07-09T07:46:36.262Z,31.8
2017-07-09T07:47:39.301Z,31.8
2017-07-09T07:48:36.532Z,31.8
2017-07-09T07:49:39.621Z,31.8
2017-07-09T07:50:41.534Z,31.9
2017-07-09T07:51:41.590Z,31.9
2017-07-09T07:52:41.791Z,32
2017-07-09T07:53:36.861Z,32.2
2017-07-09T07:54:36.938Z,32.3
2017-07-09T07:55:40.176Z,32.4
2017-07-09T07:56:36.949Z,32.4
2017-07-09T07:57:41.999Z,32.5
2017-07-09T07:58:37.204Z,32.6
2017-07-09T07:59:37.050Z,32.6
2017-07-09T08:00:42.140Z,32.7
2017-07-09T08:01:40.470Z,32.7
2017-07-09T08:02:37.247Z,32.8
2017-07-09T08:03:37.386Z,32.8
2017-07-09T08:04:43.034Z,32.8
2017-07-09T08:05:40.444Z,32.8
2017-07-09T08:06:37.497Z,32.8
2017-07-09T08:07:40.777Z,32.8
2017-07-09T08:08:37.694Z,32.8
2017-07-09T08:09:40.718Z,32.8
2017-07-09T08:10:42.849Z,32.8
2017-07-09T08:11:37.727Z,32.8
2017-07-09T08:12:37.913Z,32.8
2017-07-09T08:13:38.085Z,32.8
2017-07-09T08:14:43.003Z,32.9
2017-07-09T08:15:38.017Z,32.9
2017-07-09T08:16:43.131Z,33
2017-07-09T08:17:38.061Z,33
2017-07-09T08:18:41.067Z,33.1
2017-07-09T08:19:43.378Z,33
2017-07-09T08:20:43.278Z,33
2017-07-09T08:21:43.211Z,32.9
2017-07-09T08:22:38.276Z,32.8
2017-07-09T08:23:41.957Z,32.7
2017-07-09T08:24:38.482Z,32.7
2017-07-09T08:25:41.630Z,32.6
2017-07-09T08:26:38.615Z,32.6
2017-07-09T08:27:38.601Z,32.5
2017-07-09T08:28:41.630Z,32.5
2017-07-09T08:29:38.686Z,32.5
2017-07-09T08:30:38.824Z,32.4
2017-07-09T08:31:39.251Z,32.4
2017-07-09T08:32:38.956Z,32.3
2017-07-09T08:33:38.994Z,32.2
2017-07-09T08:34:43.898Z,32.2
2017-07-09T08:35:39.023Z,32.3
2017-07-09T08:36:42.002Z,32.3
2017-07-09T08:37:39.550Z,32.2
2017-07-09T08:38:44.147Z,32.2
2017-07-09T08:39:42.254Z,32.3
2017-07-09T08:40:42.385Z,32.3
2017-07-09T08:41:39.519Z,32.3
2017-07-09T08:42:42.435Z,32.3
2017-07-09T08:43:42.646Z,32.3
2017-07-09T08:44:42.539Z,32.3
2017-07-09T08:45:42.674Z,32.3
2017-07-09T08:46:42.715Z,32.3
2017-07-09T08:47:39.907Z,32.3
2017-07-09T08:48:39.985Z,32.3
2017-07-09T08:49:45.186Z,32.3
2017-07-09T08:50:39.949Z,32.2
2017-07-09T08:51:40.108Z,32.2
2017-07-09T08:52:40.125Z,32.3
2017-07-09T08:53:40.212Z,32.3
2017-07-09T08:54:43.033Z,32.3
2017-07-09T08:55:43.518Z,32.3
2017-07-09T08:56:40.282Z,32.3
2017-07-09T08:57:45.506Z,32.3
2017-07-09T08:58:40.599Z,32.3
2017-07-09T08:59:43.435Z,32.3
2017-07-09T09:00:40.401Z,32.3
2017-07-09T09:01:43.750Z,32.3
2017-07-09T09:02:40.587Z,32.3
2017-07-09T09:03:40.711Z,32.3
2017-07-09T09:04:40.688Z,32.3
2017-07-09T09:05:40.717Z,32.3
2017-07-09T09:06:43.775Z,32.4
2017-07-09T09:07:46.090Z,32.3
2017-07-09T09:08:41.008Z,32.4
2017-07-09T09:09:43.836Z,32.4
2017-07-09T09:10:41.148Z,32.4
2017-07-09T09:11:43.934Z,32.4
2017-07-09T09:12:46.131Z,32.4
2017-07-09T09:13:41.674Z,32.4
2017-07-09T09:14:46.271Z,32.4
2017-07-09T09:15:46.438Z,32.4
2017-07-09T09:16:41.433Z,32.4
2017-07-09T09:17:44.331Z,32.4
2017-07-09T09:19:23.714Z,32.5
2017-07-09T09:20:23.456Z,32.5
2017-07-09T09:21:23.286Z,32.5
2017-07-09T09:22:23.448Z,32.5
2017-07-09T09:23:26.387Z,32.5
2017-07-09T09:24:26.396Z,32.5
2017-07-09T09:25:28.897Z,32.5
2017-07-09T09:26:26.439Z,32.4
2017-07-09T09:27:23.689Z,32.4
2017-07-09T09:28:23.514Z,32.5
2017-07-09T09:29:23.706Z,32.5
2017-07-09T09:30:23.851Z,32.5
2017-07-09T09:31:24.054Z,32.5
2017-07-09T09:32:23.932Z,32.4
2017-07-09T09:33:26.815Z,32.5
2017-07-09T09:34:27.026Z,32.5
2017-07-09T09:35:24.191Z,32.5
2017-07-09T09:36:24.084Z,32.4
2017-07-09T09:37:27.278Z,32.4
2017-07-09T09:38:29.148Z,32.5
2017-07-09T09:39:27.184Z,32.5
2017-07-09T09:40:24.240Z,32.5
2017-07-09T09:41:29.418Z,32.5
2017-07-09T09:42:24.546Z,32.4
2017-07-09T09:43:24.899Z,32.4
2017-07-09T09:44:24.472Z,32.4
2017-07-09T09:45:24.490Z,32.4
2017-07-09T09:46:24.587Z,32.5
2017-07-09T09:47:29.655Z,32.5
2017-07-09T09:48:29.746Z,32.5
2017-07-09T09:49:27.940Z,32.4
2017-07-09T09:50:27.565Z,32.4
2017-07-09T09:51:29.831Z,32.5
2017-07-09T09:52:24.676Z,32.4
2017-07-09T09:53:27.754Z,32.4
2017-07-09T09:54:29.910Z,32.4
2017-07-09T09:55:30.096Z,32.5
2017-07-09T09:56:24.940Z,32.5
2017-07-09T09:57:25.082Z,32.4
2017-07-09T09:58:27.961Z,32.5
2017-07-09T09:59:25.151Z,32.5
2017-07-09T10:00:25.169Z,32.4
2017-07-09T10:01:25.949Z,32.5
2017-07-09T10:02:26.045Z,32.5
2017-07-09T10:03:28.760Z,32.4
2017-07-09T10:04:26.058Z,32.5
2017-07-09T10:05:28.896Z,32.5
2017-07-09T10:06:31.724Z,32.5
2017-07-09T10:07:29.701Z,32.5
2017-07-09T10:08:31.195Z,32.5
2017-07-09T10:09:26.243Z,32.5
2017-07-09T10:10:31.261Z,32.5
2017-07-09T10:11:31.424Z,32.5
2017-07-09T10:12:29.190Z,32.5
2017-07-09T10:13:31.598Z,32.5
2017-07-09T10:14:26.621Z,32.5
2017-07-09T10:15:26.520Z,32.5
2017-07-09T10:16:26.450Z,32.5
2017-07-09T10:17:26.649Z,32.5
2017-07-09T10:18:31.863Z,32.5
2017-07-09T10:19:31.946Z,32.5
2017-07-09T10:20:26.743Z,32.5
2017-07-09T10:21:31.773Z,32.5
2017-07-09T10:22:31.742Z,32.5
2017-07-09T10:23:29.627Z,32.4
2017-07-09T10:24:26.874Z,32.5
2017-07-09T10:25:27.014Z,32.5
2017-07-09T10:26:29.758Z,32.5
2017-07-09T10:27:32.068Z,32.5
2017-07-09T10:28:32.113Z,32.5
2017-07-09T10:29:29.926Z,32.5
2017-07-09T10:30:27.104Z,32.5
2017-07-09T10:31:30.187Z,32.5
2017-07-09T10:32:29.374Z,32.5
2017-07-09T10:33:31.562Z,32.5
2017-07-09T10:34:31.820Z,32.4
2017-07-09T10:35:26.864Z,32.5
2017-07-09T10:36:29.613Z,32.5
2017-07-09T10:37:27.229Z,32.5
2017-07-09T10:38:31.849Z,32.5
2017-07-09T10:39:26.882Z,32.5
2017-07-09T10:40:29.985Z,32.5
2017-07-09T10:41:27.031Z,32.5
2017-07-09T10:42:27.025Z,32.5
2017-07-09T10:43:30.422Z,32.5
2017-07-09T10:44:29.997Z,32.5
2017-07-09T10:45:27.349Z,32.5
2017-07-09T10:46:27.246Z,32.5
2017-07-09T10:47:30.291Z,32.5
2017-07-09T10:48:32.443Z,32.4
2017-07-09T10:49:27.765Z,32.5
2017-07-09T10:50:27.468Z,32.4
2017-07-09T10:51:30.397Z,32.5
2017-07-09T10:52:27.524Z,32.5
2017-07-09T10:53:32.562Z,32.5
2017-07-09T10:54:27.666Z,32.5
2017-07-09T10:55:27.853Z,32.5
2017-07-09T10:56:32.601Z,32.5
2017-07-09T10:57:27.674Z,32.5
2017-07-09T10:58:28.500Z,32.5
2017-07-09T10:59:32.852Z,32.5
2017-07-09T11:00:27.914Z,32.5
2017-07-09T11:01:31.039Z,32.5
2017-07-09T11:02:27.915Z,32.5
2017-07-09T11:03:32.924Z,32.5
2017-07-09T11:04:27.898Z,32.5
2017-07-09T11:05:32.906Z,32.5
2017-07-09T11:06:32.974Z,32.6
2017-07-09T11:07:33.327Z,32.6
2017-07-09T11:08:28.051Z,32.6
2017-07-09T11:09:31.058Z,32.6
2017-07-09T11:10:28.250Z,32.6
2017-07-09T11:11:28.408Z,32.6
2017-07-09T11:12:28.542Z,32.5
2017-07-09T11:13:31.624Z,32.6
2017-07-09T11:14:28.470Z,32.6
2017-07-09T11:15:31.395Z,32.5
2017-07-09T11:16:28.717Z,32.6
2017-07-09T11:17:31.647Z,32.5
2017-07-09T11:18:31.552Z,32.6
2017-07-09T11:19:34.147Z,32.6
2017-07-09T11:20:33.777Z,32.6
2017-07-09T11:21:28.806Z,32.6
2017-07-09T11:22:31.819Z,32.5
2017-07-09T11:23:29.032Z,32.6
2017-07-09T11:24:31.852Z,32.6
2017-07-09T11:25:29.315Z,32.6
2017-07-09T11:26:29.138Z,32.6
2017-07-09T11:27:31.999Z,32.6
2017-07-09T11:28:29.220Z,32.6
2017-07-09T11:29:29.408Z,32.6
2017-07-09T11:30:29.462Z,32.6
2017-07-09T11:31:29.736Z,32.6
2017-07-09T11:32:29.450Z,32.6
2017-07-09T11:33:29.643Z,32.6
2017-07-09T11:34:29.648Z,32.6
2017-07-09T11:35:29.716Z,32.6
2017-07-09T11:36:29.634Z,32.6
2017-07-09T11:37:35.041Z,32.6
2017-07-09T11:38:29.827Z,32.6
2017-07-09T11:39:29.871Z,32.6
2017-07-09T11:40:34.762Z,32.6
2017-07-09T11:41:32.714Z,32.6
2017-07-09T11:42:34.904Z,32.6
2017-07-09T11:43:30.381Z,32.6
2017-07-09T11:44:30.163Z,32.6
2017-07-09T11:45:35.086Z,32.6
2017-07-09T11:46:30.313Z,32.7
2017-07-09T11:47:33.109Z,32.7
2017-07-09T11:48:35.337Z,32.7
2017-07-09T11:49:35.586Z,32.7
2017-07-09T11:50:33.123Z,32.7
2017-07-09T11:51:33.309Z,32.6
2017-07-09T11:52:33.297Z,32.7
2017-07-09T11:53:35.557Z,32.7
2017-07-09T11:54:35.427Z,32.6
2017-07-09T11:55:30.713Z,32.7
2017-07-09T11:56:30.686Z,32.7
2017-07-09T11:57:33.400Z,32.7
2017-07-09T11:58:30.714Z,32.7
2017-07-09T11:59:35.731Z,32.7
2017-07-09T12:00:35.728Z,32.7
2017-07-09T12:01:33.801Z,32.7
2017-07-09T12:02:30.873Z,32.7
2017-07-09T12:03:35.776Z,32.7
2017-07-09T12:04:31.049Z,32.7
2017-07-09T12:05:30.900Z,32.7
2017-07-09T12:06:30.957Z,32.7
2017-07-09T12:07:34.118Z,32.7
2017-07-09T12:08:31.138Z,32.7
2017-07-09T12:09:36.021Z,32.7
2017-07-09T12:10:31.197Z,32.7
2017-07-09T12:11:31.311Z,32.7
2017-07-09T12:12:31.203Z,32.7
2017-07-09T12:13:31.542Z,32.7
2017-07-09T12:14:36.258Z,32.7
2017-07-09T12:15:31.431Z,32.7
2017-07-09T12:16:31.433Z,32.8
2017-07-09T12:17:34.386Z,32.8
2017-07-09T12:18:36.415Z,32.8
2017-07-09T12:19:34.547Z,32.8
2017-07-09T12:20:34.436Z,32.8
2017-07-09T12:21:31.500Z,32.8
2017-07-09T12:22:36.601Z,32.8
2017-07-09T12:23:31.615Z,32.8
2017-07-09T12:24:36.783Z,32.7
2017-07-09T12:25:31.989Z,32.8
2017-07-09T12:26:31.965Z,32.8
2017-07-09T12:27:31.867Z,32.8
2017-07-09T12:28:34.921Z,32.8
2017-07-09T12:29:32.022Z,32.8
2017-07-09T12:30:37.113Z,32.8
2017-07-09T12:31:32.495Z,32.8
2017-07-09T12:32:32.056Z,32.8
2017-07-09T12:33:35.068Z,32.8
2017-07-09T12:34:37.113Z,32.8
2017-07-09T12:35:32.333Z,32.8
2017-07-09T12:36:32.351Z,32.8
2017-07-09T12:37:35.443Z,32.8
2017-07-09T12:38:37.373Z,32.8
2017-07-09T12:39:32.368Z,32.8
2017-07-09T12:40:32.596Z,32.8
2017-07-09T12:41:32.654Z,32.8
2017-07-09T12:42:35.481Z,32.8
2017-07-09T12:43:33.051Z,32.8
2017-07-09T12:44:37.774Z,32.8
2017-07-09T12:45:37.857Z,32.8
2017-07-09T12:46:32.810Z,32.8
2017-07-09T12:47:35.695Z,32.8
2017-07-09T12:48:33.571Z,32.9
2017-07-09T12:49:36.029Z,32.9
2017-07-09T12:50:32.962Z,32.9
2017-07-09T12:51:35.883Z,32.9
2017-07-09T12:52:38.110Z,32.9
2017-07-09T12:53:38.149Z,32.9
2017-07-09T12:54:36.098Z,32.9
2017-07-09T12:55:33.540Z,32.9
2017-07-09T12:56:36.146Z,32.9
2017-07-09T12:57:36.300Z,32.9
2017-07-09T12:58:36.286Z,32.9
2017-07-09T12:59:36.425Z,32.9
2017-07-09T13:00:36.369Z,32.9
2017-07-09T13:01:36.620Z,32.9
2017-07-09T13:02:36.517Z,32.9
2017-07-09T13:03:33.702Z,32.9
2017-07-09T13:04:33.753Z,33
2017-07-09T13:05:38.808Z,33
2017-07-09T13:06:38.706Z,33
2017-07-09T13:07:34.296Z,33
2017-07-09T13:08:33.793Z,32.9
2017-07-09T13:09:38.872Z,33
2017-07-09T13:10:34.119Z,33
2017-07-09T13:11:34.106Z,33
2017-07-09T13:12:36.895Z,33
2017-07-09T13:13:34.452Z,33
2017-07-09T13:14:34.049Z,33
2017-07-09T13:15:37.164Z,33
2017-07-09T13:16:37.027Z,33
2017-07-09T13:17:37.238Z,33
2017-07-09T13:18:37.314Z,33
2017-07-09T13:19:34.769Z,33
2017-07-09T13:20:34.550Z,33
2017-07-09T13:21:34.497Z,33
2017-07-09T13:22:35.209Z,33
2017-07-09T13:23:37.508Z,33
2017-07-09T13:24:37.754Z,33
2017-07-09T13:25:35.126Z,33
2017-07-09T13:26:39.750Z,33
2017-07-09T13:27:34.754Z,33
2017-07-09T13:28:39.920Z,33
2017-07-09T13:29:37.875Z,33
2017-07-09T13:30:39.908Z,33
2017-07-09T13:31:41.022Z,33
2017-07-09T13:32:35.686Z,33